Time;durP1;ratioP1;P1;durP2;ratioP2;P2;SDS_P1;SDS_P2;PMS_P1;PMS_P2;Temp;Humidity;BMP_temperature;BMP_pressure;BME280_temperature;BME280_humidity;BME280_pressure;Samples;Min_cycle;Max_cycle;Signal;HPM_P1;HPM_P2
2023/06/14 00:00:44;;;;;;;6.20;2.60;;;22.00;52.10;;;;;;5074342;28;20024;-89
2023/06/14 00:03:11;;;;;;;5.00;2.58;;;21.90;52.20;;;;;;5073930;28;20119;-86
2023/06/14 00:05:48;;;;;;;3.95;2.55;;;21.90;52.20;;;;;;5074129;28;20036;-89
2023/06/14 00:08:18;;;;;;;5.60;2.78;;;21.90;52.30;;;;;;5074661;28;20024;-91
2023/06/14 00:10:45;;;;;;;4.20;2.50;;;21.90;52.30;;;;;;5074638;28;20028;-90
2023/06/14 00:13:11;;;;;;;6.38;2.58;;;21.80;52.30;;;;;;5074049;28;20024;-85
2023/06/14 00:15:42;;;;;;;2.45;2.17;;;21.80;52.40;;;;;;5057662;28;20033;-89
2023/06/14 00:18:11;;;;;;;4.65;2.45;;;21.80;52.50;;;;;;5074368;28;20021;-90
2023/06/14 00:20:46;;;;;;;5.57;2.50;;;21.70;52.50;;;;;;5057935;28;20202;-89
2023/06/14 00:23:15;;;;;;;3.15;2.00;;;21.70;52.60;;;;;;5057578;28;20029;-87
2023/06/14 00:25:43;;;;;;;3.97;2.40;;;21.80;52.70;;;;;;5073691;28;20040;-89
2023/06/14 00:28:13;;;;;;;4.25;2.60;;;21.70;52.70;;;;;;5075818;28;20067;-91
2023/06/14 00:30:44;;;;;;;3.55;2.15;;;21.70;52.70;;;;;;5075467;28;20152;-89
2023/06/14 00:33:12;;;;;;;4.50;2.38;;;21.70;52.90;;;;;;5074184;28;20059;-91
2023/06/14 00:35:38;;;;;;;5.10;2.53;;;21.60;52.90;;;;;;5058087;28;20032;-89
2023/06/14 00:38:07;;;;;;;2.80;2.15;;;21.60;53.00;;;;;;5073711;28;20059;-89
2023/06/14 00:40:34;;;;;;;3.53;2.17;;;21.60;53.10;;;;;;5074320;28;20065;-89
2023/06/14 00:43:00;;;;;;;3.70;2.20;;;21.60;53.10;;;;;;5074419;28;20032;-89
2023/06/14 00:45:35;;;;;;;6.10;2.70;;;21.50;53.20;;;;;;5074974;28;20446;-89
2023/06/14 00:48:06;;;;;;;4.97;2.50;;;21.50;53.30;;;;;;5077678;28;20031;-89
2023/06/14 00:50:33;;;;;;;4.70;2.60;;;21.50;53.40;;;;;;5060727;28;20048;-89
2023/06/14 00:53:20;;;;;;;3.40;2.10;;;21.40;53.50;;;;;;5081989;28;20020;-88
2023/06/14 00:55:47;;;;;;;3.60;2.10;;;21.40;53.60;;;;;;5066708;28;20025;-88
2023/06/14 00:58:13;;;;;;;4.93;2.15;;;21.30;53.60;;;;;;5083217;28;20446;-89
2023/06/14 01:00:45;;;;;;;2.42;1.90;;;21.30;53.70;;;;;;5064771;28;20363;-89
2023/06/14 01:03:12;;;;;;;6.20;2.28;;;21.30;53.80;;;;;;5088718;28;20033;-89
2023/06/14 01:05:41;;;;;;;4.93;2.40;;;21.20;53.90;;;;;;5083737;28;20109;-89
2023/06/14 01:08:27;;;;;;;5.18;2.20;;;21.20;54.10;;;;;;5058087;28;20501;-88
2023/06/14 01:10:58;;;;;;;2.85;2.42;;;21.20;54.20;;;;;;5074611;28;20028;-88
2023/06/14 01:13:32;;;;;;;3.90;2.38;;;21.20;54.20;;;;;;5073019;28;20177;-90
2023/06/14 01:15:58;;;;;;;3.38;2.10;;;21.20;54.40;;;;;;5073344;28;20029;-89
2023/06/14 01:18:33;;;;;;;3.17;2.08;;;21.20;54.50;;;;;;5056721;28;20462;-89
2023/06/14 01:20:59;;;;;;;4.65;2.20;;;21.20;54.60;;;;;;5073695;28;20047;-90
2023/06/14 01:23:32;;;;;;;4.10;2.38;;;21.10;54.60;;;;;;5073267;28;20532;-90
2023/06/14 01:25:58;;;;;;;4.35;2.20;;;21.10;54.80;;;;;;5073332;28;20035;-90
2023/06/14 01:28:26;;;;;;;3.13;2.05;;;21.00;54.90;;;;;;5073280;28;20378;-88
2023/06/14 01:31:00;;;;;;;2.97;1.95;;;21.00;55.00;;;;;;5073101;28;20074;-91
2023/06/14 01:33:28;;;;;;;5.13;2.38;;;21.00;55.10;;;;;;5073585;28;20091;-89
2023/06/14 01:35:55;;;;;;;7.18;2.58;;;21.00;55.10;;;;;;5073061;28;20013;-88
2023/06/14 01:38:26;;;;;;;5.10;2.30;;;21.00;55.20;;;;;;5072599;28;20052;-88
2023/06/14 01:40:58;;;;;;;2.90;1.92;;;21.00;55.40;;;;;;5077001;28;20028;-89
2023/06/14 01:43:28;;;;;;;5.28;2.28;;;21.00;55.50;;;;;;5076761;28;20020;-90
2023/06/14 01:46:00;;;;;;;4.15;2.20;;;20.90;55.60;;;;;;5077236;28;20465;-89
2023/06/14 01:48:26;;;;;;;4.13;2.33;;;20.80;55.70;;;;;;5076904;28;20389;-89
2023/06/14 01:50:54;;;;;;;3.67;2.17;;;20.80;55.80;;;;;;5076952;28;20128;-90
2023/06/14 01:53:23;;;;;;;3.97;2.40;;;20.80;55.80;;;;;;5078636;28;20466;-90
2023/06/14 01:55:49;;;;;;;4.18;2.42;;;20.80;56.00;;;;;;5078498;28;20054;-91
2023/06/14 01:58:18;;;;;;;3.67;2.20;;;20.80;56.10;;;;;;5060119;28;20086;-90
2023/06/14 02:00:47;;;;;;;2.20;2.00;;;20.70;56.20;;;;;;5077224;28;20122;-92
2023/06/14 02:03:13;;;;;;;3.95;2.08;;;20.60;56.40;;;;;;5077206;28;20103;-89
2023/06/14 02:05:42;;;;;;;3.03;2.10;;;20.60;56.40;;;;;;5076951;28;20051;-89
2023/06/14 02:08:11;;;;;;;3.75;2.30;;;20.60;56.50;;;;;;5076598;28;20021;-89
2023/06/14 02:10:37;;;;;;;3.00;2.17;;;20.60;56.50;;;;;;5076397;28;20025;-90
2023/06/14 02:13:06;;;;;;;4.35;2.00;;;20.50;56.60;;;;;;5059931;28;20047;-89
2023/06/14 02:15:35;;;;;;;2.97;2.38;;;20.50;56.80;;;;;;5076522;28;20036;-89
2023/06/14 02:18:13;;;;;;;3.00;2.00;;;20.50;56.80;;;;;;5060330;28;20042;-90
2023/06/14 02:20:41;;;;;;;4.28;1.98;;;20.50;57.00;;;;;;5076327;28;20033;-90
2023/06/14 02:23:12;;;;;;;3.45;2.00;;;20.40;57.00;;;;;;5076486;28;20458;-89
2023/06/14 02:25:41;;;;;;;2.80;2.03;;;20.40;57.10;;;;;;5075183;28;20024;-87
2023/06/14 02:28:07;;;;;;;3.33;2.10;;;20.40;57.10;;;;;;5075256;28;20048;-89
2023/06/14 02:30:35;;;;;;;2.13;1.90;;;20.40;57.20;;;;;;5077758;28;20059;-89
2023/06/14 02:33:01;;;;;;;4.68;2.40;;;20.40;57.30;;;;;;5078186;28;20085;-90
2023/06/14 02:35:27;;;;;;;4.38;2.15;;;20.40;57.40;;;;;;5077374;28;20029;-89
2023/06/14 02:37:56;;;;;;;5.53;2.33;;;20.40;57.50;;;;;;5077626;28;20055;-89
2023/06/14 02:40:24;;;;;;;4.30;2.17;;;20.40;57.60;;;;;;5077936;28;20017;-90
2023/06/14 02:42:50;;;;;;;4.60;1.90;;;20.40;57.60;;;;;;5060659;28;20504;-88
2023/06/14 02:45:18;;;;;;;3.20;2.00;;;20.30;57.70;;;;;;5061491;28;20166;-87
2023/06/14 02:47:43;;;;;;;4.03;2.05;;;20.30;57.80;;;;;;5060014;28;20036;-90
2023/06/14 02:50:09;;;;;;;4.97;2.28;;;20.30;57.90;;;;;;5076646;28;20037;-90
2023/06/14 02:52:35;;;;;;;2.45;1.98;;;20.20;57.90;;;;;;5076684;28;20028;-90
2023/06/14 02:55:03;;;;;;;2.88;2.20;;;20.20;58.00;;;;;;5078502;28;20373;-90
2023/06/14 02:57:29;;;;;;;5.43;2.55;;;20.20;58.20;;;;;;5068064;28;20096;-87
2023/06/14 02:59:57;;;;;;;4.18;2.30;;;20.10;58.30;;;;;;5091829;28;20031;-90
2023/06/14 03:02:22;;;;;;;4.53;2.50;;;20.10;58.40;;;;;;5083042;28;20119;-90
2023/06/14 03:04:48;;;;;;;3.05;1.80;;;20.10;58.50;;;;;;5078116;28;20117;-90
2023/06/14 03:07:20;;;;;;;5.88;2.25;;;20.00;58.60;;;;;;5062084;28;20029;-90
2023/06/14 03:09:46;;;;;;;2.30;1.88;;;20.00;58.70;;;;;;5076046;28;20051;-90
2023/06/14 03:12:15;;;;;;;2.33;1.90;;;20.00;58.80;;;;;;5058764;28;20064;-89
2023/06/14 03:14:41;;;;;;;2.70;2.05;;;19.90;58.90;;;;;;5075422;28;20044;-89
2023/06/14 03:17:08;;;;;;;3.25;2.08;;;19.90;58.90;;;;;;5075345;28;20029;-89
2023/06/14 03:19:34;;;;;;;5.72;2.42;;;19.90;59.10;;;;;;5074663;28;20021;-89
2023/06/14 03:22:00;;;;;;;2.78;1.75;;;19.90;59.10;;;;;;5058305;28;20082;-89
2023/06/14 03:24:28;;;;;;;2.75;2.20;;;19.80;59.20;;;;;;5074531;28;20028;-90
2023/06/14 03:26:57;;;;;;;3.38;2.30;;;19.80;59.30;;;;;;5074689;28;20028;-90
2023/06/14 03:29:23;;;;;;;2.42;1.90;;;19.70;59.30;;;;;;5075264;28;20021;-90
2023/06/14 03:32:00;;;;;;;2.63;1.77;;;19.80;59.40;;;;;;5074995;28;20029;-90
2023/06/14 03:34:26;;;;;;;4.85;2.20;;;19.70;59.50;;;;;;5074677;28;20025;-89
2023/06/14 03:36:55;;;;;;;2.67;1.98;;;19.70;59.60;;;;;;5074623;28;20206;-89
2023/06/14 03:39:21;;;;;;;4.03;2.00;;;19.70;59.70;;;;;;5074126;28;20051;-89
2023/06/14 03:41:47;;;;;;;3.13;2.03;;;19.70;59.80;;;;;;5074606;28;20039;-89
2023/06/14 03:44:16;;;;;;;4.70;2.00;;;19.70;59.90;;;;;;5074386;28;20020;-90
2023/06/14 03:46:42;;;;;;;3.03;1.80;;;19.60;60.00;;;;;;5074523;28;20033;-90
2023/06/14 03:49:08;;;;;;;2.67;2.10;;;19.60;60.10;;;;;;5075940;28;20023;-90
2023/06/14 03:51:36;;;;;;;3.63;1.83;;;19.50;60.10;;;;;;5074699;28;20050;-87
2023/06/14 03:54:05;;;;;;;3.13;2.00;;;19.60;60.30;;;;;;5074147;28;20035;-90
2023/06/14 03:56:31;;;;;;;4.00;1.88;;;19.60;60.50;;;;;;5075536;28;20031;-90
2023/06/14 03:58:57;;;;;;;3.35;2.17;;;19.60;60.60;;;;;;5075355;28;20024;-90
2023/06/14 04:01:27;;;;;;;4.05;2.22;;;19.50;60.70;;;;;;5074782;28;20381;-90
2023/06/14 04:03:53;;;;;;;2.95;2.50;;;19.50;60.90;;;;;;5075661;28;20036;-91
2023/06/14 04:06:19;;;;;;;3.85;2.15;;;19.40;61.00;;;;;;5075700;28;20185;-89
2023/06/14 04:08:45;;;;;;;3.53;2.10;;;19.50;61.20;;;;;;5058790;28;20032;-90
2023/06/14 04:11:13;;;;;;;2.85;2.10;;;19.40;61.20;;;;;;5075484;28;20142;-89
2023/06/14 04:13:39;;;;;;;3.63;2.10;;;19.40;61.30;;;;;;5057642;28;20036;-89
2023/06/14 04:16:05;;;;;;;4.53;1.95;;;19.40;61.50;;;;;;5074723;28;20359;-90
2023/06/14 04:18:31;;;;;;;2.30;2.05;;;19.40;61.60;;;;;;5057794;28;20119;-89
2023/06/14 04:20:57;;;;;;;3.45;2.10;;;19.30;61.70;;;;;;5074225;28;20016;-89
2023/06/14 04:23:23;;;;;;;4.32;1.80;;;19.30;61.90;;;;;;5075475;28;20082;-90
2023/06/14 04:25:49;;;;;;;4.68;2.10;;;19.20;62.00;;;;;;5057721;28;20535;-91
2023/06/14 04:28:17;;;;;;;3.40;2.10;;;19.30;62.10;;;;;;5075460;28;20028;-90
2023/06/14 04:30:44;;;;;;;3.22;1.98;;;19.30;62.20;;;;;;5074566;28;20031;-90
2023/06/14 04:33:13;;;;;;;6.38;2.25;;;19.20;62.20;;;;;;5074568;28;20037;-91
2023/06/14 04:35:47;;;;;;;3.65;2.10;;;19.30;62.30;;;;;;5057712;28;20422;-90
2023/06/14 04:38:16;;;;;;;5.43;2.30;;;19.30;62.40;;;;;;5074182;28;20114;-89
2023/06/14 04:40:45;;;;;;;4.25;2.20;;;19.30;62.50;;;;;;5074019;28;20394;-90
2023/06/14 04:43:17;;;;;;;4.13;2.13;;;19.20;62.60;;;;;;5058955;28;20032;-90
2023/06/14 04:45:46;;;;;;;4.32;2.28;;;19.30;62.70;;;;;;5075937;28;20111;-90
2023/06/14 04:48:12;;;;;;;4.97;2.17;;;19.30;62.70;;;;;;5061053;28;20032;-90
2023/06/14 04:50:43;;;;;;;3.30;2.20;;;19.30;62.80;;;;;;5065811;28;20021;-92
2023/06/14 04:53:10;;;;;;;3.75;2.00;;;19.30;63.00;;;;;;5090843;28;20033;-91
2023/06/14 04:55:37;;;;;;;4.95;2.50;;;19.20;63.20;;;;;;5088536;28;20431;-92
2023/06/14 04:58:05;;;;;;;4.63;2.35;;;19.20;63.30;;;;;;5060945;28;20086;-92
2023/06/14 05:00:32;;;;;;;4.03;2.30;;;19.20;63.40;;;;;;5073932;28;20020;-91
2023/06/14 05:02:57;;;;;;;6.00;2.38;;;19.30;64.10;;;;;;5073601;28;20025;-91
2023/06/14 05:05:24;;;;;;;3.72;2.40;;;19.30;63.60;;;;;;5074442;28;20073;-92
2023/06/14 05:07:50;;;;;;;4.60;2.13;;;19.30;63.60;;;;;;5073986;28;20525;-91
2023/06/14 05:10:19;;;;;;;2.53;2.00;;;19.30;63.70;;;;;;5074181;28;20094;-93
2023/06/14 05:12:45;;;;;;;5.85;2.38;;;19.30;63.80;;;;;;5056803;28;20035;-91
2023/06/14 05:15:11;;;;;;;3.22;2.05;;;19.30;63.90;;;;;;5076384;28;20410;-92
2023/06/14 05:17:40;;;;;;;3.88;2.08;;;19.30;64.00;;;;;;5078245;28;20031;-92
2023/06/14 05:20:10;;;;;;;4.38;2.25;;;19.30;64.20;;;;;;5078983;28;20025;-91
2023/06/14 05:22:52;;;;;;;4.20;2.00;;;19.30;64.40;;;;;;5087050;28;20060;-90
2023/06/14 05:25:23;;;;;;;2.85;2.03;;;19.30;64.40;;;;;;5091181;28;20462;-93
2023/06/14 05:27:58;;;;;;;3.35;2.40;;;19.30;64.40;;;;;;5080135;28;20024;-92
2023/06/14 05:30:26;;;;;;;4.32;2.10;;;19.30;64.60;;;;;;5086394;28;20028;-92
2023/06/14 05:32:57;;;;;;;3.35;2.67;;;19.30;64.50;;;;;;5067993;28;20174;-91
2023/06/14 05:35:26;;;;;;;4.93;2.10;;;19.30;64.50;;;;;;5082567;28;20025;-91
2023/06/14 05:37:54;;;;;;;3.90;2.55;;;19.30;64.50;;;;;;5082202;28;20131;-92
2023/06/14 05:40:30;;;;;;;2.72;2.10;;;19.40;64.40;;;;;;5079614;28;20500;-91
2023/06/14 05:42:58;;;;;;;2.55;2.00;;;19.40;64.30;;;;;;5080475;28;20040;-92
2023/06/14 05:45:31;;;;;;;2.60;2.00;;;19.40;64.30;;;;;;5068124;28;20064;-92
2023/06/14 05:47:57;;;;;;;4.22;2.60;;;19.40;64.20;;;;;;5081195;28;20027;-93
2023/06/14 05:50:23;;;;;;;2.63;1.95;;;19.50;64.30;;;;;;5080083;28;20536;-91
2023/06/14 05:52:54;;;;;;;5.35;2.40;;;19.50;64.20;;;;;;5080313;28;20031;-92
2023/06/14 05:55:22;;;;;;;6.72;2.78;;;19.50;64.20;;;;;;5047876;28;20048;-91
2023/06/14 05:57:51;;;;;;;3.45;2.10;;;19.50;64.30;;;;;;5080087;28;20466;-92
2023/06/14 06:00:20;;;;;;;4.28;2.28;;;19.50;64.30;;;;;;5078663;28;20033;-93
2023/06/14 06:03:11;;;;;;;4.68;2.55;;;19.50;64.30;;;;;;5080555;28;20025;-92
2023/06/14 06:05:39;;;;;;;3.58;2.17;;;19.60;65.00;;;;;;5079761;28;20086;-91
2023/06/14 06:08:14;;;;;;;2.42;2.20;;;19.60;64.20;;;;;;5078647;28;20029;-91
2023/06/14 06:10:49;;;;;;;2.47;1.77;;;19.60;64.30;;;;;;5079815;28;20089;-90
2023/06/14 06:13:15;;;;;;;3.35;2.38;;;19.70;64.90;;;;;;5079919;28;20529;-90
2023/06/14 06:15:43;;;;;;;4.25;2.40;;;19.70;64.10;;;;;;5080127;28;20033;-90
2023/06/14 06:18:18;;;;;;;4.65;2.90;;;19.70;64.10;;;;;;5079053;28;20025;-91
2023/06/14 06:20:55;;;;;;;;;;;;;;;;;;;;;
2023/06/14 06:23:21;;;;;;;4.70;2.55;;;19.70;64.10;;;;;;5080491;28;20033;-91
2023/06/14 06:25:54;;;;;;;3.67;2.22;;;19.80;64.20;;;;;;5079295;28;20059;-92
2023/06/14 06:28:33;;;;;;;3.03;2.13;;;19.90;64.00;;;;;;5095821;28;20043;-92
2023/06/14 06:37:19;;;;;;;6.63;2.40;;;20.10;63.70;;;;;;5084591;28;20079;-92
2023/06/14 06:39:50;;;;;;;3.35;2.50;;;20.10;63.40;;;;;;5084473;28;20127;-92
2023/06/14 06:42:16;;;;;;;;;;;20.20;63.20;;;;;;5078861;28;20013;-91
2023/06/14 06:44:48;;;;;;;2.88;1.90;;;20.20;63.20;;;;;;5096430;28;19912;-90
2023/06/14 06:47:25;;;;;;;2.72;2.20;;;20.30;63.30;;;;;;5082445;28;20092;-91
2023/06/14 06:50:02;;;;;;;2.55;2.15;;;20.30;63.10;;;;;;5068877;28;20032;-89
2023/06/14 06:52:40;;;;;;;4.28;2.40;;;20.40;63.10;;;;;;5074924;28;20032;-91
2023/06/14 06:55:20;;;;;;;4.07;2.33;;;20.50;63.00;;;;;;5084983;28;20029;-91
2023/06/14 06:57:53;;;;;;;3.10;2.20;;;20.60;63.00;;;;;;5092623;28;20021;-91
2023/06/14 07:00:27;;;;;;;3.60;2.50;;;20.70;62.80;;;;;;5079472;28;20032;-92
2023/06/14 07:02:58;;;;;;;4.18;2.22;;;20.70;62.70;;;;;;5089870;28;20025;-91
2023/06/14 07:05:24;;;;;;;;;;;20.80;62.60;;;;;;5085951;28;20025;-93
2023/06/14 07:07:52;;;;;;;3.78;2.05;;;20.90;62.60;;;;;;5087524;28;19912;-91
2023/06/14 07:10:24;;;;;;;3.25;2.33;;;20.90;62.60;;;;;;5067920;28;20047;-93
2023/06/14 07:13:30;;;;;;;;;;;;;;;;;;;;;
2023/06/14 07:16:16;;;;;;;4.15;2.33;;;21.10;62.50;;;;;;5086298;28;20093;-87
2023/06/14 07:18:45;;;;;;;4.13;2.30;;;21.20;62.30;;;;;;5086657;28;20024;-92
2023/06/14 07:21:27;;;;;;;2.88;2.08;;;21.40;62.30;;;;;;5085657;28;20028;-92
2023/06/14 07:24:03;;;;;;;4.30;2.13;;;21.40;62.10;;;;;;5071238;28;20029;-93
2023/06/14 07:26:31;;;;;;;2.95;2.35;;;21.40;61.80;;;;;;5092680;28;20044;-91
2023/06/14 07:29:00;;;;;;;2.53;1.70;;;21.50;61.60;;;;;;5080126;28;20011;-93
2023/06/14 07:31:43;;;;;;;4.63;1.95;;;21.60;61.60;;;;;;5079403;28;20053;-92
2023/06/14 07:34:19;;;;;;;3.55;1.65;;;21.70;61.30;;;;;;5079179;28;20035;-93
2023/06/14 07:36:46;;;;;;;4.65;1.50;;;21.70;61.10;;;;;;5077984;28;20041;-91
2023/06/14 07:39:25;;;;;;;1.55;1.45;;;21.80;60.80;;;;;;5095126;28;20029;-90
2023/06/14 07:42:00;;;;;;;2.00;1.77;;;21.90;60.70;;;;;;5078277;28;20135;-91
2023/06/14 07:44:40;;;;;;;4.10;1.90;;;21.90;60.20;;;;;;5094655;28;20032;-91
2023/06/14 07:47:26;;;;;;;2.73;1.80;;;22.00;59.80;;;;;;5077788;28;20040;-92
2023/06/14 07:49:56;;;;;;;2.30;1.50;;;22.00;59.40;;;;;;5090190;28;20267;-93
2023/06/14 07:52:28;;;;;;;1.60;1.50;;;22.10;59.10;;;;;;5074681;28;20025;-92
2023/06/14 07:54:54;;;;;;;1.33;1.20;;;22.20;59.00;;;;;;5068845;28;20052;-88
2023/06/14 07:57:27;;;;;;;2.33;1.15;;;22.30;59.00;;;;;;5066488;28;20036;-93
2023/06/14 08:00:21;;;;;;;;;;;;;;;;;;;;;
2023/06/14 08:02:58;;;;;;;3.28;1.50;;;22.50;58.50;;;;;;5080952;28;20448;-91
2023/06/14 08:05:26;;;;;;;1.55;1.42;;;22.50;58.00;;;;;;5079912;28;20056;-91
2023/06/14 08:07:55;;;;;;;1.30;1.13;;;22.50;58.00;;;;;;5076698;28;20032;-93
2023/06/14 08:10:27;;;;;;;1.48;1.38;;;22.60;58.20;;;;;;5076818;28;20039;-92
2023/06/14 08:12:58;;;;;;;2.75;1.50;;;22.70;57.90;;;;;;5077231;28;20119;-92
2023/06/14 08:15:26;;;;;;;2.33;1.40;;;22.70;57.70;;;;;;5076997;28;20534;-92
2023/06/14 08:18:00;;;;;;;1.05;1.00;;;22.80;57.60;;;;;;5077056;28;20032;-92
2023/06/14 08:20:37;;;;;;;1.30;1.20;;;22.80;57.60;;;;;;5045327;28;20115;-92
2023/06/14 08:23:30;;;;;;;;;;;;;;;;;;;;;
2023/06/14 08:26:03;;;;;;;1.80;1.35;;;23.00;57.20;;;;;;5078675;28;20108;-93
2023/06/14 08:28:38;;;;;;;2.05;1.33;;;23.00;57.10;;;;;;5077079;28;20035;-91
2023/06/14 08:31:12;;;;;;;2.83;1.33;;;23.00;56.40;;;;;;5063527;28;20029;-92
2023/06/14 08:33:43;;;;;;;2.97;1.30;;;23.10;56.30;;;;;;5077539;28;20055;-92
2023/06/14 08:36:22;;;;;;;2.67;1.48;;;23.10;55.70;;;;;;5065335;28;20049;-91
2023/06/14 08:39:16;;;;;;;1.63;1.40;;;23.10;55.80;;;;;;5046495;28;20048;-93
2023/06/14 08:41:45;;;;;;;1.98;1.42;;;23.10;55.60;;;;;;5079591;28;20039;-93
2023/06/14 08:44:14;;;;;;;4.13;1.83;;;23.20;55.60;;;;;;5081278;28;20036;-92
2023/06/14 08:46:43;;;;;;;3.88;1.50;;;23.20;55.50;;;;;;5087997;28;20043;-91
2023/06/14 08:49:23;;;;;;;1.60;1.50;;;23.20;55.50;;;;;;5091815;28;20029;-91
2023/06/14 08:52:00;;;;;;;2.03;1.40;;;23.30;55.80;;;;;;5093729;28;20054;-91
2023/06/14 08:54:49;;;;;;;2.35;1.95;;;23.40;56.00;;;;;;5091846;28;20032;-93
2023/06/14 08:57:17;;;;;;;3.78;1.40;;;23.40;55.80;;;;;;5089534;28;20367;-91
2023/06/14 08:59:53;;;;;;;3.08;1.77;;;23.50;55.20;;;;;;5061439;28;20067;-88
2023/06/14 09:02:22;;;;;;;3.10;1.67;;;23.50;54.90;;;;;;5082815;28;20024;-89
2023/06/14 09:04:50;;;;;;;3.15;1.50;;;23.60;54.50;;;;;;5071152;28;20040;-93
2023/06/14 09:07:17;;;;;;;2.53;1.30;;;23.60;54.30;;;;;;5071880;28;20091;-92
2023/06/14 09:09:44;;;;;;;2.55;1.60;;;23.70;54.20;;;;;;5086494;28;20033;-92
2023/06/14 09:12:24;;;;;;;1.85;1.38;;;23.70;54.10;;;;;;5087509;28;20028;-89
2023/06/14 09:14:55;;;;;;;2.88;1.55;;;23.80;54.10;;;;;;5086817;28;20050;-93
2023/06/14 09:17:23;;;;;;;2.75;1.60;;;23.80;54.20;;;;;;5072545;28;20029;-92
2023/06/14 09:19:48;;;;;;;1.70;1.42;;;23.90;54.00;;;;;;5072044;28;20032;-91
2023/06/14 09:22:25;;;;;;;2.50;1.50;;;23.90;53.60;;;;;;5089422;28;20021;-93
2023/06/14 09:25:15;;;;;;;1.80;1.30;;;23.90;53.50;;;;;;5071949;28;20100;-93
2023/06/14 09:27:48;;;;;;;2.40;1.25;;;24.00;53.30;;;;;;5088647;28;20078;-90
2023/06/14 09:30:29;;;;;;;;;;;;;;;;;;;;;
2023/06/14 09:33:27;;;;;;;1.98;1.20;;;24.10;53.70;;;;;;5084158;28;20099;-94
2023/06/14 09:36:02;;;;;;;2.78;1.23;;;24.10;53.90;;;;;;5080220;28;20032;-90
2023/06/14 09:38:38;;;;;;;3.63;1.65;;;24.20;54.10;;;;;;5080963;28;20074;-92
2023/06/14 09:41:06;;;;;;;2.50;1.30;;;24.20;54.20;;;;;;5063197;28;20565;-92
2023/06/14 09:43:34;;;;;;;1.20;1.10;;;24.20;54.30;;;;;;5046447;28;20058;-93
2023/06/14 09:46:09;;;;;;;2.40;1.40;;;24.30;54.20;;;;;;5077269;28;20477;-90
2023/06/14 09:48:35;;;;;;;2.78;1.20;;;24.30;54.00;;;;;;5078221;28;20020;-92
2023/06/14 09:51:02;;;;;;;1.77;1.23;;;24.40;53.80;;;;;;5078740;28;20037;-92
2023/06/14 09:53:50;;;;;;;2.08;1.38;;;24.40;53.80;;;;;;5089406;28;20009;-92
2023/06/14 09:56:27;;;;;;;2.80;1.33;;;24.40;53.20;;;;;;5082063;28;20025;-92
2023/06/14 09:59:01;;;;;;;1.67;1.25;;;24.40;53.10;;;;;;5076861;28;20567;-92
2023/06/14 10:01:30;;;;;;;1.83;1.20;;;24.40;53.20;;;;;;5079854;28;20120;-91
2023/06/14 10:04:08;;;;;;;4.05;1.10;;;24.40;53.20;;;;;;5063956;28;20035;-90
2023/06/14 10:06:43;;;;;;;2.28;1.10;;;24.50;53.30;;;;;;5080679;28;20484;-91
2023/06/14 10:09:10;;;;;;;1.30;1.20;;;24.50;53.40;;;;;;5080244;28;20445;-93
2023/06/14 10:11:43;;;;;;;2.88;1.10;;;24.50;53.10;;;;;;5080655;28;20024;-92
2023/06/14 10:14:15;;;;;;;1.65;1.30;;;24.50;52.80;;;;;;5080778;28;20035;-91
2023/06/14 10:16:47;;;;;;;1.70;1.20;;;24.60;52.70;;;;;;5079968;28;20111;-91
2023/06/14 10:19:22;;;;;;;4.55;1.17;;;24.50;52.60;;;;;;5078892;28;20434;-88
2023/06/14 10:22:00;;;;;;;1.58;0.90;;;24.60;52.50;;;;;;5077813;28;20028;-89
2023/06/14 10:24:45;;;;;;;2.45;1.40;;;24.60;52.60;;;;;;5079480;28;20543;-89
2023/06/14 10:27:23;;;;;;;1.15;1.02;;;24.60;52.70;;;;;;5079856;28;20031;-92
2023/06/14 10:30:00;;;;;;;1.63;1.08;;;24.70;53.00;;;;;;5063810;28;20031;-92
2023/06/14 10:32:28;;;;;;;1.45;1.25;;;24.80;53.10;;;;;;5079054;28;20019;-92
2023/06/14 10:35:18;;;;;;;2.65;1.20;;;24.80;52.50;;;;;;5078394;28;20020;-91
2023/06/14 10:37:54;;;;;;;1.10;1.00;;;24.80;52.40;;;;;;5078464;28;20048;-91
2023/06/14 10:40:40;;;;;;;2.80;1.25;;;24.80;52.50;;;;;;5064256;28;20037;-90
2023/06/14 10:43:24;;;;;;;2.35;1.38;;;24.80;52.20;;;;;;5090281;28;20029;-88
2023/06/14 10:46:28;;;;;;;2.70;1.20;;;24.80;51.90;;;;;;5081602;28;20024;-88
2023/06/14 10:48:59;;;;;;;2.40;1.20;;;24.70;51.90;;;;;;5000567;28;20061;-88
2023/06/14 10:51:49;;;;;;;1.25;1.15;;;24.80;51.90;;;;;;5080194;28;20059;-91
2023/06/14 10:57:10;;;;;;;1.42;1.33;;;24.80;51.50;;;;;;5074102;28;20025;-92
2023/06/14 10:59:38;;;;;;;5.63;1.40;;;24.80;51.20;;;;;;5068978;28;20032;-91
2023/06/14 11:02:19;;;;;;;4.88;1.30;;;24.80;51.10;;;;;;5069491;28;20054;-90
2023/06/14 11:05:21;;;;;;;;;;;;;;;;;;;;;
2023/06/14 11:08:24;;;;;;;1.30;1.05;;;24.80;51.30;;;;;;5083103;28;20112;-95
2023/06/14 11:10:54;;;;;;;2.58;1.20;;;24.80;51.50;;;;;;5078174;28;20013;-91
2023/06/14 11:13:20;;;;;;;1.33;1.23;;;24.80;51.40;;;;;;5076571;28;20029;-92
2023/06/14 11:15:52;;;;;;;2.55;1.40;;;24.90;51.80;;;;;;5076155;28;20040;-92
2023/06/14 11:18:31;;;;;;;3.30;1.60;;;24.80;51.10;;;;;;5076605;28;20024;-92
2023/06/14 11:20:57;;;;;;;1.92;1.40;;;24.80;51.10;;;;;;5076727;28;20052;-92
2023/06/14 11:23:26;;;;;;;2.75;1.48;;;24.80;51.20;;;;;;5059034;28;20064;-87
2023/06/14 11:26:10;;;;;;;1.95;1.25;;;24.80;51.20;;;;;;5075342;28;20025;-92
2023/06/14 11:28:45;;;;;;;2.10;1.13;;;24.90;51.40;;;;;;5059686;28;20477;-93
2023/06/14 11:31:35;;;;;;;2.33;1.42;;;24.90;51.40;;;;;;5059112;28;20056;-91
2023/06/14 11:34:14;;;;;;;;;;;;;;;;;;;;;
2023/06/14 11:37:16;;;;;;;1.20;1.10;;;24.90;51.60;;;;;;5077139;28;20119;-92
2023/06/14 11:39:48;;;;;;;1.58;1.33;;;25.00;51.80;;;;;;5075439;28;20059;-92
2023/06/14 11:42:30;;;;;;;2.13;1.38;;;25.10;51.60;;;;;;5058785;28;20456;-93
2023/06/14 11:45:08;;;;;;;;;;;;;;;;;;;;;
2023/06/14 11:47:47;;;;;;;3.13;1.42;;;25.10;51.50;;;;;;5075447;28;20024;-93
2023/06/14 11:50:23;;;;;;;1.85;1.38;;;25.10;51.30;;;;;;5058967;28;20025;-93
2023/06/14 11:53:10;;;;;;;3.25;1.60;;;25.10;51.20;;;;;;5058772;28;20056;-93
2023/06/14 11:55:59;;;;;;;2.17;1.33;;;25.10;50.80;;;;;;5075181;28;20086;-94
2023/06/14 11:58:56;;;;;;;;;;;;;;;;;;;;;
2023/06/14 12:08:16;;;;;;;2.33;1.33;;;25.10;50.80;;;;;;4995414;28;20113;-94
2023/06/14 12:13:49;;;;;;;3.25;1.40;;;25.00;50.70;;;;;;5043883;28;20044;-94
2023/06/14 12:16:30;;;;;;;1.50;1.13;;;25.00;50.70;;;;;;5041897;28;20032;-94
2023/06/14 12:20:03;;;;;;;1.70;1.20;;;25.00;50.80;;;;;;5060192;28;20413;-94
2023/06/14 12:29:41;;;;;;;1.60;1.23;;;25.10;51.40;;;;;;4988658;28;20066;-93
2023/06/14 12:32:10;;;;;;;1.88;1.25;;;25.10;51.80;;;;;;5059602;28;20070;-92
2023/06/14 12:34:47;;;;;;;1.77;1.20;;;25.20;51.90;;;;;;5074546;28;20465;-92
2023/06/14 12:37:18;;;;;;;1.35;1.13;;;25.30;51.90;;;;;;5075881;28;20056;-95
2023/06/14 12:39:56;;;;;;;;;;;;;;;;;;;;;
2023/06/14 12:42:48;;;;;;;2.15;1.30;;;25.30;51.90;;;;;;5075876;28;20029;-95
2023/06/14 12:45:28;;;;;;;2.10;1.40;;;25.30;51.90;;;;;;5059503;28;20436;-95
2023/06/14 12:48:02;;;;;;;2.05;1.30;;;25.30;51.90;;;;;;5059673;28;20024;-94
2023/06/14 12:50:33;;;;;;;1.30;1.20;;;25.40;52.10;;;;;;5060950;28;20021;-94
2023/06/14 12:53:16;;;;;;;1.10;1.00;;;25.40;52.20;;;;;;5084439;28;20028;-95
2023/06/14 12:56:18;;;;;;;;;;;;;;;;;;;;;
2023/06/14 12:58:50;;;;;;;1.40;1.13;;;25.50;52.30;;;;;;5078178;28;20060;-95
2023/06/14 13:32:52;;;;;;;2.72;1.00;;;25.70;50.40;;;;;;4852781;29;20055;-92
2023/06/14 13:36:15;;;;;;;0.93;0.70;;;25.70;50.10;;;;;;4861053;29;20032;-91
2023/06/14 13:39:15;;;;;;;;;;;;;;;;;;;;;
2023/06/14 13:42:21;;;;;;;1.52;0.90;;;25.70;49.70;;;;;;4980249;28;20466;-93
2023/06/14 13:45:26;;;;;;;;;;;;;;;;;;;;;
2023/06/14 13:48:51;;;;;;;1.05;0.90;;;25.60;49.80;;;;;;5047008;28;20017;-92
2023/06/14 13:58:55;;;;;;;;;;;;;;;;;;;;;
2023/06/14 14:01:42;;;;;;;2.55;0.80;;;25.70;49.60;;;;;;4972060;28;20042;-92
2023/06/14 14:14:50;;;;;;;;;;;;;;;;;;;;;
2023/06/14 14:17:28;;;;;;;1.23;0.70;;;25.80;49.30;;;;;;4898603;29;20051;-91
2023/06/14 14:23:17;;;;;;;1.25;0.93;;;25.80;49.30;;;;;;4901752;29;20479;-93
2023/06/14 14:26:13;;;;;;;;;;;;;;;;;;;;;
2023/06/14 14:36:07;;;;;;;0.90;0.70;;;26.00;49.90;;;;;;4938997;29;20031;-91
2023/06/14 14:38:56;;;;;;;;;;;;;;;;;;;;;
2023/06/14 14:42:22;;;;;;;;;;;;;;;;;;;;;
2023/06/14 14:45:01;;;;;;;;;;;;;;;;;;;;;
2023/06/14 14:47:35;;;;;;;1.50;1.10;;;26.30;50.00;;;;;;5077637;28;20031;-90
2023/06/14 14:57:46;;;;;;;;;;;;;;;;;;;;;
2023/06/14 15:00:36;;;;;;;1.10;0.80;;;26.20;49.80;;;;;;5029265;28;20069;-89
2023/06/14 15:03:40;;;;;;;2.40;0.80;;;26.20;49.90;;;;;;5086492;28;20047;-89
2023/06/14 15:06:45;;;;;;;0.73;0.63;;;26.30;49.80;;;;;;5084387;28;20036;-91
2023/06/14 15:12:32;;;;;;;1.75;1.13;;;26.40;50.30;;;;;;5071314;28;20025;-92
2023/06/14 15:15:20;;;;;;;3.85;1.00;;;26.40;50.30;;;;;;5075918;28;20043;-89
2023/06/14 15:29:14;;;;;;;;;;;;;;;;;;;;;
2023/06/14 15:32:33;;;;;;;;;;;;;;;;;;;;;
2023/06/14 15:35:34;;;;;;;;;;;;;;;;;;;;;
2023/06/14 15:38:23;;;;;;;1.20;0.95;;;26.50;50.10;;;;;;4922837;29;20047;-92
2023/06/14 15:41:57;;;;;;;;;;;;;;;;;;;;;